Terminal Aerodrome Forecast
Issued by NWS

Home | Current Version | Previous Version | Text Only | Print | Product List | Glossary On
Versions: 1 2 3 4 5 6 7 8 9 10 11 12 13 14
000
FTUS46 KSGX 302334
TAFSNA
TAF
KSNA 302334Z 0100/0124 24008KT P6SM SCT100 BKN150
     FM010600 22005KT P6SM FEW008 SCT150
     FM011200 VRB05KT 5SM HZ BKN005
     FM011600 VRB05KT P6SM FEW008 SCT100 BKN150
     FM011800 22009KT P6SM BKN100 OVC150=

USA.gov is the U.S. government's official web portal to all federal, state and local government web resources and services.